Latest Coastal Weather Observations for Hogan Island

IDT60701

Issued at 2:02 pm EDT Thursday 24 October 2019 (issued every 10 minutes, with the page automatically refreshed every 10 minutes)

About coastal observations | Map of coastal stations | Coastal observations for TAS | Marine services | Other Formats
Station Details ID: 200838 Name: HOGAN ISLAND Lat: -39.22 Lon: 146.98 Height: 116.0 m
Data from the previous 72 hours. | See also: Recent months at Hogan Island
Date/Time
EDT
Wind Sea
Height
m
Swell Vis
km
Cloud Weather Temp
°C
Press
hPa
Rain since
9am
mm
Dir  Spd
kts
Gust
kts
Height
m
Period
s
Dir
24/02:00pm ENE 12 15 - - - - - - - 18.0 1013.4 0.0
24/01:30pm NE 12 14 - - - - - - - 18.5 1013.7 0.0
24/01:00pm NE 12 16 - - - - - - - 18.2 1014.1 0.0
24/12:30pm NE 10 13 - - - - - - - 18.3 1014.4 0.0
24/12:00pm NE 11 15 - - - - - - - 18.8 1014.7 0.0
24/11:30am NNE 12 17 - - - - - - - 19.4 1014.9 0.0
24/11:00am NNE 12 16 - - - - - - - 17.9 1015.2 0.0
24/10:30am NE 11 14 - - - - - - - 17.6 1015.2 0.0
24/10:00am NNE 13 18 - - - - - - - 16.8 1015.2 0.0
24/09:30am NNE 14 18 - - - - - - - 15.8 1015.4 0.0
24/09:00am NNE 16 20 - - - - - - - 15.3 1015.5 0.0
24/08:30am NNE 16 20 - - - - - - - 15.1 1015.5 0.0
24/08:00am NNE 17 20 - - - - - - - 14.4 1015.6 0.0
24/07:30am NNE 16 19 - - - - - - - 13.9 1015.4 0.0
24/07:00am NNE 16 17 - - - - - - - 13.2 1015.4 0.0
24/06:30am NNE 16 17 - - - - - - - 12.8 1015.4 0.0
24/06:00am NNE 15 17 - - - - - - - 13.0 1015.4 0.0
24/05:30am NE 11 14 - - - - - - - 13.0 1015.5 0.0
24/05:00am NNE 13 15 - - - - - - - 13.4 1015.7 0.0
24/04:30am NNE 13 15 - - - - - - - 13.4 1015.8 0.0
24/04:00am NNE 12 13 - - - - - - - 12.9 1016.0 0.0
24/03:30am NNE 14 15 - - - - - - - 12.6 1016.2 0.0
24/03:00am NNE 14 15 - - - - - - - 12.6 1016.6 0.0
24/02:30am NNE 13 14 - - - - - - - 12.4 1017.2 0.0
24/02:00am N 11 13 - - - - - - - 12.4 1017.7 0.0
24/01:30am N 14 16 - - - - - - - 12.4 1017.9 0.0
24/01:00am N 13 15 - - - - - - - 12.1 1018.2 0.0
24/12:30am N 12 13 - - - - - - - 11.6 1018.5 0.0
24/12:00am N 10 12 - - - - - - - 11.5 1019.0 0.0
 
Date/Time
EDT
Wind Sea
Height
m
Swell Vis
km
Cloud Weather Temp
°C
Press
hPa
Rain since
9am
mm
Dir  Spd
kts
Gust
kts
Height
m
Period
s
Dir
23/11:30pm N 10 11 - - - - - - - 11.5 1019.2 0.0
23/11:00pm N 12 13 - - - - - - - 11.9 1019.1 0.0
23/10:30pm NNW 11 12 - - - - - - - 11.6 1019.2 0.0
23/10:00pm WNW 7 8 - - - - - - - 11.5 1019.2 0.0
23/09:30pm W 7 9 - - - - - - - 12.5 1019.2 0.0
23/09:00pm WSW 10 11 - - - - - - - 13.0 1019.0 0.0
23/08:30pm SW 9 11 - - - - - - - 12.7 1018.6 0.0
23/08:00pm SW 13 14 - - - - - - - 13.4 1018.3 0.0
23/07:30pm SW 13 15 - - - - - - - 13.7 1018.2 0.0
23/07:00pm SW 12 14 - - - - - - - 13.8 1018.1 0.0
23/06:30pm WSW 10 12 - - - - - - - 14.9 1018.1 0.0
23/06:00pm WSW 12 14 - - - - - - - 15.4 1018.1 0.0
23/05:30pm SW 12 15 - - - - - - - 15.7 1018.1 0.0
23/05:00pm SW 12 16 - - - - - - - 15.6 1018.3 0.0
23/04:30pm SW 12 15 - - - - - - - 15.4 1018.6 0.0
23/04:00pm SW 11 14 - - - - - - - 15.9 1018.6 0.0
23/03:30pm SW 11 13 - - - - - - - 15.2 1019.0 0.0
23/03:00pm SW 9 13 - - - - - - - 15.1 1019.3 0.0
23/02:30pm SW 9 11 - - - - - - - 15.4 1019.4 0.0
23/02:00pm W 6 9 - - - - - - - 15.7 1019.9 0.0
23/01:30pm WSW 7 9 - - - - - - - 15.7 1020.0 0.0
23/01:00pm WSW 7 9 - - - - - - - 15.4 1020.3 0.0
23/12:30pm WNW 7 9 - - - - - - - 14.7 1020.3 0.0
23/12:00pm NNW 9 11 - - - - - - - 14.5 1020.4 0.0
23/11:30am NNW 8 10 - - - - - - - 14.4 1020.7 0.0
23/11:00am N 7 9 - - - - - - - 13.4 1021.0 0.0
23/10:30am N 11 14 - - - - - - - 13.6 1020.9 0.0
23/10:00am N 8 9 - - - - - - - 13.3 1021.3 0.0
23/09:30am N 9 11 - - - - - - - 12.1 1021.4 0.0
23/09:00am NNE 7 10 - - - - - - - 12.3 1021.2 0.0
23/08:30am N 6 8 - - - - - - - 11.2 1021.6 0.0
23/08:00am N 3 7 - - - - - - - 11.2 1021.5 0.0
23/07:30am NNW 4 6 - - - - - - - 10.8 1021.4 0.0
23/07:00am N 6 7 - - - - - - - 10.7 1021.2 0.0
23/06:30am N 7 9 - - - - - - - 9.8 1021.2 0.0
23/06:00am NNE 9 10 - - - - - - - 9.4 1021.0 0.0
23/05:30am NNE 9 11 - - - - - - - 10.1 1020.8 0.0
23/05:00am NNE 6 9 - - - - - - - 9.5 1020.9 0.0
23/04:30am N 6 8 - - - - - - - 10.4 1021.2 0.0
23/04:00am N 7 8 - - - - - - - 10.3 1021.2 0.0
23/03:30am N 8 11 - - - - - - - 10.2 1021.2 0.0
23/03:00am N 8 12 - - - - - - - 10.2 1021.4 0.0
23/02:30am N 7 9 - - - - - - - 10.2 1021.7 0.0
23/02:00am N 8 11 - - - - - - - 10.4 1022.1 0.0
23/01:30am N 8 11 - - - - - - - 10.3 1022.4 0.0
23/01:00am N 7 11 - - - - - - - 10.5 1022.8 0.0
23/12:30am N 9 12 - - - - - - - 10.4 1023.1 0.0
23/12:00am N 10 13 - - - - - - - 10.5 1023.4 0.0
 
Date/Time
EDT
Wind Sea
Height
m
Swell Vis
km
Cloud Weather Temp
°C
Press
hPa
Rain since
9am
mm
Dir  Spd
kts
Gust
kts
Height
m
Period
s
Dir
22/11:30pm N 8 12 - - - - - - - 10.5 1023.6 0.0
22/11:00pm NNW 6 7 - - - - - - - 10.3 1023.8 0.0
22/10:30pm N 9 12 - - - - - - - 9.8 1023.7 0.0
22/10:00pm N 7 10 - - - - - - - 9.7 1023.9 0.0
22/09:30pm N 7 8 - - - - - - - 8.6 1024.0 0.0
22/09:00pm NNW 5 6 - - - - - - - 8.8 1024.0 0.0
22/08:30pm NNW 4 8 - - - - - - - 8.8 1024.0 0.0
22/08:00pm WSW 2 4 - - - - - - - 9.2 1023.8 0.0
22/07:30pm WSW 3 5 - - - - - - - 9.7 1023.7 0.0
22/07:00pm SW 6 7 - - - - - - - 10.9 1023.6 0.0
22/06:30pm SW 7 8 - - - - - - - 11.3 1023.5 0.0
22/06:00pm WSW 8 11 - - - - - - - 11.8 1023.6 0.0
22/05:30pm SW 8 11 - - - - - - - 12.2 1023.6 0.0
22/05:00pm SW 7 9 - - - - - - - 13.1 1023.7 0.0
22/04:30pm WSW 9 13 - - - - - - - 13.1 1023.9 0.0
22/04:00pm WSW 11 14 - - - - - - - 13.8 1024.1 0.0
22/03:30pm W 11 14 - - - - - - - 13.0 1024.4 0.0
22/03:00pm WSW 11 14 - - - - - - - 13.5 1024.7 0.0
22/02:30pm WSW 11 14 - - - - - - - 14.0 1025.2 0.0
22/02:00pm WSW 12 15 - - - - - - - 13.9 1025.4 0.0
22/01:30pm W 13 17 - - - - - - - 13.9 1025.5 0.0
22/01:00pm W 13 16 - - - - - - - 13.6 1025.7 0.0
22/12:30pm W 16 19 - - - - - - - 13.7 1025.6 0.0
22/12:00pm W 17 20 - - - - - - - 13.1 1025.8 0.0
22/11:30am W 16 20 - - - - - - - 13.0 1026.1 0.0
22/11:00am W 18 22 - - - - - - - 12.5 1026.2 0.0
22/10:30am W 16 21 - - - - - - - 11.5 1026.2 0.0
22/10:00am W 19 22 - - - - - - - 11.2 1026.0 0.0
22/09:30am W 19 23 - - - - - - - 11.4 1025.9 0.0
22/09:00am W 18 21 - - - - - - - 11.0 1025.9 0.0
22/08:30am W 17 21 - - - - - - - 10.4 1025.9 0.0
22/08:00am WSW 20 23 - - - - - - - 10.1 1025.5 0.0
22/07:30am W 21 26 - - - - - - - 9.8 1025.1 0.0
22/07:00am W 21 24 - - - - - - - 9.4 1024.9 0.0
22/06:30am W 21 30 - - - - - - - 9.7 1024.5 0.0
22/06:00am W 23 29 - - - - - - - 9.8 1024.2 0.0
22/05:30am WSW 24 29 - - - - - - - 9.4 1023.9 0.0
22/05:00am W 25 30 - - - - - - - 9.9 1023.7 0.0
22/04:30am WSW 26 30 - - - - - - - 9.8 1023.6 0.0
22/04:00am W 25 31 - - - - - - - 9.8 1023.8 0.0
22/03:30am W 28 31 - - - - - - - 9.9 1023.9 0.0
22/03:00am W 26 32 - - - - - - - 10.4 1023.9 0.0
22/02:30am W 27 32 - - - - - - - 10.1 1023.9 0.0
22/02:00am W 27 32 - - - - - - - 10.2 1024.1 0.0
22/01:30am W 26 30 - - - - - - - 10.5 1024.4 0.0
22/01:00am W 28 31 - - - - - - - 10.4 1024.6 0.0
22/12:30am W 27 32 - - - - - - - 10.7 1024.8 0.0
22/12:00am W 27 32 - - - - - - - 10.5 1024.8 0.0
 
Date/Time
EDT
Wind Sea
Height
m
Swell Vis
km
Cloud Weather Temp
°C
Press
hPa
Rain since
9am
mm
Dir  Spd
kts
Gust
kts
Height
m
Period
s
Dir
21/11:30pm WSW 27 30 - - - - - - - 10.8 1024.8 0.0
21/11:00pm WSW 28 34 - - - - - - - 10.8 1024.8 0.0
21/10:30pm WSW 30 35 - - - - - - - 11.0 1025.2 0.0
21/10:00pm WSW 30 35 - - - - - - - 11.1 1025.2 0.0
21/09:30pm W 30 35 - - - - - - - 11.0 1025.0 0.0
21/09:00pm W 31 36 - - - - - - - 11.3 1024.8 0.0
21/08:30pm W 31 36 - - - - - - - 11.0 1024.6 0.0
21/08:00pm W 29 34 - - - - - - - 11.1 1024.6 0.0
21/07:30pm W 29 33 - - - - - - - 11.5 1024.7 0.0
21/07:00pm W 29 32 - - - - - - - 11.8 1024.6 0.0
21/06:30pm W 29 33 - - - - - - - 11.9 1024.7 0.0
21/06:00pm W 29 32 - - - - - - - 12.5 1024.5 0.0
21/05:30pm W 30 34 - - - - - - - 12.6 1024.5 0.0
21/05:00pm W 29 33 - - - - - - - 12.7 1024.6 0.0
21/04:30pm W 30 35 - - - - - - - 13.7 1024.8 0.0
21/04:00pm W 30 35 - - - - - - - 13.5 1024.8 0.0
21/03:30pm W 30 35 - - - - - - - 13.8 1025.1 0.0
21/03:00pm W 32 36 - - - - - - - 13.8 1025.4 0.0
21/02:30pm W 30 36 - - - - - - - 14.1 1025.5 0.0

Other formats

Comma delimited format used in spreadsheet applications
http://www.bom.gov.au/fwo/IDT60701/IDT60701.94949.axf

JavaScript Object Notation format (JSON) in row-major order
http://www.bom.gov.au/fwo/IDT60701/IDT60701.94949.json

Data quality

Most of these data are generated automatically and are frequently updated. Quality checks on data are not normally performed. It is possible for incorrect values to appear. Refer to information at About Latest Weather Observations and please check the disclaimer before using these data.